Portada
METAR-TAF:

METAR-TAF

Aeroports :

Aeroport de Rabat

Rabat, Marroc

latitud: 34-03N, longitud: 006-46W, altitud: 84 m

Observació

L'informe es va fer fa 16 minuts, a les 12:30 UTC
Vent 10 kt del Oest/Nord-Oest
Temperatura 22°C
Humitat 73%
Pressió 1009 hPa
Visibilitat: 6000 m
Cel ennuvolat a una alçada de 1600 ft

METAR: GMME 301230Z 30010KT 6000 BKN016 22/17 Q1009 NOSIG

Hora: 13:46 (12:46 UTC)

Pronòstic

L'informe es va fer fa 1 hora i 46 minuts, a les 11:00 UTC
Pronòstic vàlid del 30 a les 12 UTC al 31 a les 18 UTC
Vent 12 kt del Oest/Nord-Oest
Visibilitat: 6000 m
Cel ennuvolat a una alçada de 1600 ft
Probabilitat 40% :
Temporalment
l' 30 a les 22 UTC al 31 a les 08 UTC
Vent 4 kt del Sud-Oest
Visibilitat: 4000 m
Cel ennuvolat a una alçada de 1600 ft
Cel ennuvolat a una alçada de 2000 ft
pluja
Evolucionant progressivament
l' 31 a les 08 UTC al 31 a les 12 UTC

TAF: GMME 301100Z 3012/3118 30012KT 6000 BKN016 PROB40 TEMPO 3022/3108 22004KT 4000 RA BKN016 BKN020 BECMG 3108/3112 NSC

Observacions i pronòstics meteorològics de més de 4000 aeroports (METAR i TAF).

Les estacions disponibles són els punts grocs i vermells al mapa.

Posi el ratolí al punt desitjat per veure el nom de l'estació.

Feu clic per veure les observacions i els pronòstics meteorològics.

Per canviar el mapa: feu clic els botons verds amb una creu de color negre per apropar; al botó verd amb un guió per allunyar la imatge; o en les fletxes verdes per a mapes adjacents.


METAR-TAF: